Time,TemperatureF,DewpointF,PressureIn,WindDirection,WindDirectionDegrees,WindSpeedMPH,WindSpeedGustMPH,Humidity,HourlyPrecipIn,Conditions,Clouds,dailyrainin,SoftwareType,DateUTC
2013-01-25 00:01:00,60.5,55.3,30.20,NNE,25,2.0,3.0,83,0.00,,---,0.00,VWS V14.01,2013-01-25 05:01:00,
2013-01-25 00:03:00,60.7,55.2,30.20,NNE,25,3.0,3.0,82,0.00,,---,0.00,VWS V14.01,2013-01-25 05:03:00,
2013-01-25 00:05:00,60.5,55.0,30.20,NNE,25,0.0,3.0,82,0.00,,---,0.00,VWS V14.01,2013-01-25 05:05:00,
2013-01-25 00:10:00,60.5,55.0,30.20,NNE,25,0.0,3.0,82,0.00,,---,0.00,VWS V14.01,2013-01-25 05:10:00,
2013-01-25 00:15:00,60.7,55.2,30.20,NNE,25,0.0,3.0,82,0.00,,---,0.00,VWS V14.01,2013-01-25 05:15:00,
2013-01-25 00:20:00,60.5,55.0,30.19,NNE,25,1.0,3.0,82,0.00,,---,0.00,VWS V14.01,2013-01-25 05:20:00,
2013-01-25 00:25:00,60.4,55.2,30.19,NNE,25,2.0,3.0,83,0.00,,---,0.00,VWS V14.01,2013-01-25 05:25:00,
2013-01-25 00:30:00,60.2,55.0,30.19,NNE,25,0.0,3.0,83,0.00,,---,0.00,VWS V14.01,2013-01-25 05:30:00,
2013-01-25 00:35:00,60.1,55.3,30.19,NNE,25,0.0,2.0,84,0.00,,---,0.00,VWS V14.01,2013-01-25 05:35:00,
2013-01-25 00:40:00,59.9,55.4,30.19,NNE,25,1.0,2.0,85,0.00,,---,0.00,VWS V14.01,2013-01-25 05:40:00,
2013-01-25 00:45:00,59.8,55.6,30.19,NNE,25,0.0,2.0,86,0.00,,---,0.00,VWS V14.01,2013-01-25 05:45:00,
2013-01-25 00:50:00,59.8,55.9,30.19,NNE,25,2.0,3.0,87,0.00,,---,0.00,VWS V14.01,2013-01-25 05:50:00,
2013-01-25 00:56:00,59.6,56.0,30.19,NNE,25,0.0,3.0,88,0.00,,---,0.00,VWS V14.01,2013-01-25 05:56:00,
2013-01-25 01:01:00,59.5,55.6,30.19,NNE,25,0.0,3.0,87,0.00,,---,0.00,VWS V14.01,2013-01-25 06:01:00,
2013-01-25 01:06:00,59.5,56.3,30.19,NNE,25,0.0,0.0,89,0.00,,---,0.00,VWS V14.01,2013-01-25 06:06:00,
2013-01-25 01:11:00,59.2,56.0,30.19,NNE,25,0.0,0.0,89,0.00,,---,0.00,VWS V14.01,2013-01-25 06:11:00,
2013-01-25 01:16:00,59.0,56.1,30.19,NNE,25,0.0,0.0,90,0.00,,---,0.00,VWS V14.01,2013-01-25 06:16:00,
2013-01-25 01:21:00,58.9,56.0,30.19,NNE,25,0.0,1.0,90,0.00,,---,0.00,VWS V14.01,2013-01-25 06:21:00,
2013-01-25 01:26:00,58.7,55.8,30.19,NNE,25,0.0,1.0,90,0.00,,---,0.00,VWS V14.01,2013-01-25 06:26:00,
2013-01-25 01:31:00,58.6,56.0,30.18,NNE,25,0.0,1.0,91,0.00,,---,0.00,VWS V14.01,2013-01-25 06:31:00,
2013-01-25 01:36:00,58.6,56.0,30.18,NNE,25,0.0,1.0,91,0.00,,---,0.00,VWS V14.01,2013-01-25 06:36:00,
2013-01-25 01:41:00,58.7,56.1,30.18,NNE,25,0.0,1.0,91,0.00,,---,0.00,VWS V14.01,2013-01-25 06:41:00,
2013-01-25 01:46:00,58.6,56.3,30.18,NNE,25,0.0,1.0,92,0.00,,---,0.00,VWS V14.01,2013-01-25 06:46:00,
2013-01-25 01:51:00,58.6,56.0,30.18,NNE,25,0.0,1.0,91,0.00,,---,0.00,VWS V14.01,2013-01-25 06:51:00,
2013-01-25 01:56:00,58.6,56.0,30.18,NNE,25,0.0,1.0,91,0.00,,---,0.00,VWS V14.01,2013-01-25 06:56:00,
2013-01-25 02:01:00,58.4,55.8,30.18,NNE,25,0.0,1.0,91,0.00,,---,0.00,VWS V14.01,2013-01-25 07:01:00,
2013-01-25 02:06:00,58.3,56.0,30.18,NNE,25,0.0,1.0,92,0.00,,---,0.00,VWS V14.01,2013-01-25 07:06:00,
2013-01-25 02:12:00,58.3,56.0,30.18,NNE,25,0.0,1.0,92,0.00,,---,0.00,VWS V14.01,2013-01-25 07:12:00,
2013-01-25 02:17:00,58.3,56.0,30.17,NNE,25,0.0,1.0,92,0.00,,---,0.00,VWS V14.01,2013-01-25 07:17:00,
2013-01-25 02:22:00,58.3,56.0,30.17,NNE,25,1.0,3.0,92,0.00,,---,0.00,VWS V14.01,2013-01-25 07:22:00,
2013-01-25 02:27:00,58.4,55.8,30.17,NNE,25,2.0,3.0,91,0.00,,---,0.00,VWS V14.01,2013-01-25 07:27:00,
2013-01-25 02:32:00,58.6,55.7,30.17,NNE,25,4.0,4.0,90,0.00,,---,0.00,VWS V14.01,2013-01-25 07:32:00,
2013-01-25 02:37:00,58.9,56.0,30.17,NNE,25,1.0,3.0,90,0.00,,---,0.00,VWS V14.01,2013-01-25 07:37:00,
2013-01-25 02:42:00,58.7,55.5,30.17,NNE,25,0.0,3.0,89,0.00,,---,0.00,VWS V14.01,2013-01-25 07:42:00,
2013-01-25 02:47:00,58.6,55.7,30.17,NNE,25,1.0,3.0,90,0.00,,---,0.00,VWS V14.01,2013-01-25 07:47:00,
2013-01-25 02:52:00,58.6,55.7,30.17,NNE,25,0.0,3.0,90,0.00,,---,0.00,VWS V14.01,2013-01-25 07:52:00,
2013-01-25 02:57:00,58.6,55.7,30.17,NNE,25,0.0,3.0,90,0.00,,---,0.00,VWS V14.01,2013-01-25 07:57:00,
2013-01-25 03:03:00,58.6,55.7,30.17,NNE,25,1.0,3.0,90,0.00,,---,0.00,VWS V14.01,2013-01-25 08:03:00,
2013-01-25 03:08:00,58.4,55.8,30.17,NNE,25,0.0,3.0,91,0.00,,---,0.00,VWS V14.01,2013-01-25 08:08:00,
2013-01-25 03:13:00,58.3,55.4,30.17,NNE,25,0.0,3.0,90,0.00,,---,0.00,VWS V14.01,2013-01-25 08:13:00,
2013-01-25 03:18:00,58.3,55.7,30.17,NNE,25,0.0,3.0,91,0.00,,---,0.00,VWS V14.01,2013-01-25 08:18:00,
2013-01-25 03:23:00,58.3,55.7,30.17,NNE,25,0.0,3.0,91,0.00,,---,0.00,VWS V14.01,2013-01-25 08:23:00,
2013-01-25 03:29:00,58.1,55.5,30.17,NNE,25,0.0,3.0,91,0.00,,---,0.00,VWS V14.01,2013-01-25 08:29:00,
2013-01-25 03:34:00,58.3,56.0,30.17,NNE,25,0.0,0.0,92,0.00,,---,0.00,VWS V14.01,2013-01-25 08:34:00,
2013-01-25 03:39:00,58.3,56.0,30.17,NNE,25,0.0,0.0,92,0.00,,---,0.00,VWS V14.01,2013-01-25 08:39:00,
2013-01-25 03:44:00,58.1,55.8,30.17,NNE,25,0.0,0.0,92,0.00,,---,0.00,VWS V14.01,2013-01-25 08:44:00,
2013-01-25 03:49:00,58.0,55.7,30.17,NNE,25,0.0,0.0,92,0.00,,---,0.00,VWS V14.01,2013-01-25 08:49:00,
2013-01-25 03:54:00,58.0,55.4,30.17,NNE,25,0.0,0.0,91,0.00,,---,0.00,VWS V14.01,2013-01-25 08:54:00,
2013-01-25 03:59:00,57.8,55.2,30.17,NNE,25,0.0,0.0,91,0.00,,---,0.00,VWS V14.01,2013-01-25 08:59:00,
2013-01-25 04:04:00,58.0,55.1,30.17,NNE,25,0.0,1.0,90,0.00,,---,0.00,VWS V14.01,2013-01-25 09:04:00,
2013-01-25 04:09:00,58.1,54.6,30.17,NNE,25,1.0,3.0,88,0.00,,---,0.00,VWS V14.01,2013-01-25 09:09:00,
2013-01-25 04:14:00,58.3,54.5,30.17,NNE,25,1.0,3.0,87,0.00,,---,0.00,VWS V14.01,2013-01-25 09:14:00,
2013-01-25 04:19:00,58.3,54.5,30.16,NNE,25,1.0,3.0,87,0.00,,---,0.00,VWS V14.01,2013-01-25 09:19:00,
2013-01-25 04:24:00,58.1,54.3,30.16,NNE,25,0.0,3.0,87,0.00,,---,0.00,VWS V14.01,2013-01-25 09:24:00,
2013-01-25 04:29:00,58.1,54.3,30.16,NNE,25,2.0,3.0,87,0.00,,---,0.00,VWS V14.01,2013-01-25 09:29:00,
2013-01-25 04:34:00,58.3,54.5,30.16,NNE,25,3.0,3.0,87,0.00,,---,0.00,VWS V14.01,2013-01-25 09:34:00,
2013-01-25 04:39:00,58.4,54.2,30.16,NNE,25,1.0,4.0,86,0.00,,---,0.00,VWS V14.01,2013-01-25 09:39:00,
2013-01-25 04:45:00,58.4,54.2,30.16,NNE,25,1.0,4.0,86,0.00,,---,0.00,VWS V14.01,2013-01-25 09:45:00,
2013-01-25 04:50:00,58.4,54.2,30.16,NNE,25,2.0,4.0,86,0.00,,---,0.00,VWS V14.01,2013-01-25 09:50:00,
2013-01-25 04:55:00,58.4,53.9,30.16,NNE,25,2.0,4.0,85,0.00,,---,0.00,VWS V14.01,2013-01-25 09:55:00,
2013-01-25 05:00:00,58.4,53.9,30.16,NNE,25,1.0,4.0,85,0.00,,---,0.00,VWS V14.01,2013-01-25 10:00:00,
2013-01-25 05:05:00,58.4,53.9,30.17,NNE,25,2.0,2.0,85,0.00,,---,0.00,VWS V14.01,2013-01-25 10:05:00,
2013-01-25 05:10:00,58.4,53.9,30.17,NNE,25,2.0,2.0,85,0.00,,---,0.00,VWS V14.01,2013-01-25 10:10:00,
2013-01-25 05:15:00,58.3,53.8,30.17,NNE,25,0.0,2.0,85,0.00,,---,0.00,VWS V14.01,2013-01-25 10:15:00,
2013-01-25 05:20:00,58.3,53.5,30.16,NNE,25,1.0,3.0,84,0.00,,---,0.00,VWS V14.01,2013-01-25 10:20:00,
2013-01-25 05:25:00,58.3,53.8,30.16,NNE,25,0.0,3.0,85,0.00,,---,0.00,VWS V14.01,2013-01-25 10:25:00,
2013-01-25 05:31:00,58.3,53.8,30.17,NNE,25,0.0,3.0,85,0.00,,---,0.00,VWS V14.01,2013-01-25 10:31:00,
2013-01-25 05:36:00,58.0,53.5,30.17,NNE,25,0.0,0.0,85,0.00,,---,0.00,VWS V14.01,2013-01-25 10:36:00,
2013-01-25 05:41:00,57.6,53.5,30.17,NNE,25,0.0,0.0,86,0.00,,---,0.00,VWS V14.01,2013-01-25 10:41:00,
2013-01-25 05:46:00,57.3,54.1,30.17,NNE,25,0.0,0.0,89,0.00,,---,0.00,VWS V14.01,2013-01-25 10:46:00,
2013-01-25 05:51:00,57.0,54.1,30.17,NNE,25,0.0,0.0,90,0.00,,---,0.00,VWS V14.01,2013-01-25 10:51:00,
2013-01-25 05:56:00,56.6,54.0,30.17,NNE,25,0.0,0.0,91,0.00,,---,0.00,VWS V14.01,2013-01-25 10:56:00,
2013-01-25 06:01:00,56.3,54.0,30.17,NNE,25,0.0,0.0,92,0.00,,---,0.00,VWS V14.01,2013-01-25 11:01:00,
2013-01-25 06:06:00,56.2,53.9,30.17,NNE,25,0.0,0.0,92,0.00,,---,0.00,VWS V14.01,2013-01-25 11:06:00,
2013-01-25 06:11:00,56.3,54.6,30.17,NNE,25,0.0,0.0,94,0.00,,---,0.00,VWS V14.01,2013-01-25 11:11:00,
2013-01-25 06:16:00,56.2,54.2,30.17,NNE,25,0.0,0.0,93,0.00,,---,0.00,VWS V14.01,2013-01-25 11:16:00,
2013-01-25 06:21:00,56.3,54.3,30.17,NNE,25,0.0,1.0,93,0.00,,---,0.00,VWS V14.01,2013-01-25 11:21:00,
2013-01-25 06:26:00,56.3,54.0,30.17,NNE,25,0.0,1.0,92,0.00,,---,0.00,VWS V14.01,2013-01-25 11:26:00,
2013-01-25 06:31:00,56.5,54.2,30.17,NNE,25,0.0,1.0,92,0.00,,---,0.00,VWS V14.01,2013-01-25 11:31:00,
2013-01-25 06:37:00,56.5,54.2,30.17,NNE,25,0.0,0.0,92,0.00,,---,0.00,VWS V14.01,2013-01-25 11:37:00,
2013-01-25 06:42:00,56.5,54.2,30.17,NNE,25,0.0,0.0,92,0.00,,---,0.00,VWS V14.01,2013-01-25 11:42:00,
2013-01-25 06:47:00,56.7,54.4,30.18,NNE,25,0.0,0.0,92,0.00,,---,0.00,VWS V14.01,2013-01-25 11:47:00,
2013-01-25 06:52:00,56.9,54.3,30.18,NNE,25,0.0,2.0,91,0.00,,---,0.00,VWS V14.01,2013-01-25 11:52:00,
2013-01-25 06:57:00,57.2,54.3,30.18,NNE,25,0.0,2.0,90,0.00,,---,0.00,VWS V14.01,2013-01-25 11:57:00,
2013-01-25 07:02:00,57.5,54.6,30.19,NNE,25,0.0,2.0,90,0.00,,---,0.00,VWS V14.01,2013-01-25 12:02:00,
2013-01-25 07:07:00,57.6,54.7,30.19,NNE,25,0.0,0.0,90,0.00,,---,0.00,VWS V14.01,2013-01-25 12:07:00,
2013-01-25 07:12:00,57.6,54.7,30.19,NNE,25,0.0,0.0,90,0.00,,---,0.00,VWS V14.01,2013-01-25 12:12:00,
2013-01-25 07:17:00,57.5,54.6,30.19,NNE,25,0.0,0.0,90,0.00,,---,0.00,VWS V14.01,2013-01-25 12:17:00,
2013-01-25 07:22:00,57.3,55.0,30.19,NNE,25,0.0,0.0,92,0.00,,---,0.00,VWS V14.01,2013-01-25 12:22:00,
2013-01-25 07:27:00,57.2,54.9,30.19,NNE,25,1.0,1.0,92,0.00,,---,0.00,VWS V14.01,2013-01-25 12:27:00,
2013-01-25 07:32:00,57.2,54.9,30.19,NNE,25,0.0,1.0,92,0.00,,---,0.00,VWS V14.01,2013-01-25 12:32:00,
2013-01-25 07:37:00,57.3,54.7,30.19,NNE,25,1.0,3.0,91,0.00,,---,0.00,VWS V14.01,2013-01-25 12:37:00,
2013-01-25 07:42:00,57.6,54.7,30.19,NNE,25,2.0,4.0,90,0.00,,---,0.00,VWS V14.01,2013-01-25 12:42:00,
2013-01-25 07:47:00,57.8,54.9,30.19,NNE,25,2.0,4.0,90,0.00,,---,0.00,VWS V14.01,2013-01-25 12:47:00,
2013-01-25 07:52:00,58.1,55.2,30.19,NNE,25,3.0,4.0,90,0.00,,---,0.00,VWS V14.01,2013-01-25 12:52:00,
2013-01-25 07:57:00,58.6,55.4,30.19,NNE,25,1.0,4.0,89,0.00,,---,0.00,VWS V14.01,2013-01-25 12:57:00,
2013-01-25 08:02:00,58.9,55.4,30.19,NNE,25,3.0,3.0,88,0.00,,---,0.00,VWS V14.01,2013-01-25 13:02:00,
2013-01-25 08:07:00,59.2,55.3,30.19,NNE,19,3.0,7.0,87,0.00,,---,0.00,VWS V14.01,2013-01-25 13:07:00,
2013-01-25 08:12:00,59.9,55.1,30.19,NNE,17,2.0,7.0,84,0.00,,---,0.00,VWS V14.01,2013-01-25 13:12:00,
2013-01-25 08:17:00,60.5,55.0,30.20,NNE,16,4.0,7.0,82,0.00,,---,0.00,VWS V14.01,2013-01-25 13:17:00,
2013-01-25 08:23:00,61.0,54.8,30.20,North,5,4.0,8.0,80,0.00,,---,0.00,VWS V14.01,2013-01-25 13:23:00,
2013-01-25 08:28:00,61.5,54.2,30.20,North,360,3.0,9.0,77,0.00,,---,0.00,VWS V14.01,2013-01-25 13:28:00,
2013-01-25 08:33:00,62.0,54.4,30.20,North,355,2.0,3.0,76,0.00,,---,0.00,VWS V14.01,2013-01-25 13:33:00,
2013-01-25 08:38:00,62.6,54.2,30.20,North,355,3.0,6.0,74,0.00,,---,0.00,VWS V14.01,2013-01-25 13:38:00,
2013-01-25 08:43:00,63.2,54.8,30.20,North,355,0.0,6.0,74,0.00,,---,0.00,VWS V14.01,2013-01-25 13:43:00,
2013-01-25 08:48:00,63.7,54.9,30.20,North,355,3.0,6.0,73,0.00,,---,0.00,VWS V14.01,2013-01-25 13:48:00,
2013-01-25 08:53:00,63.9,54.3,30.20,North,355,1.0,6.0,71,0.00,,---,0.00,VWS V14.01,2013-01-25 13:53:00,
2013-01-25 08:58:00,64.7,53.9,30.20,North,355,0.0,6.0,68,0.00,,---,0.00,VWS V14.01,2013-01-25 13:58:00,
2013-01-25 09:03:00,65.5,53.8,30.21,North,355,0.0,4.0,66,0.00,,---,0.00,VWS V14.01,2013-01-25 14:03:00,
2013-01-25 09:08:00,66.0,53.9,30.21,North,350,6.0,9.0,65,0.00,,---,0.00,VWS V14.01,2013-01-25 14:08:00,
2013-01-25 09:13:00,66.4,53.9,30.21,North,350,3.0,9.0,64,0.00,,---,0.00,VWS V14.01,2013-01-25 14:13:00,
2013-01-25 09:18:00,67.1,53.7,30.21,NNW,347,3.0,9.0,62,0.00,,---,0.00,VWS V14.01,2013-01-25 14:18:00,
2013-01-25 09:23:00,67.6,54.1,30.21,NNW,348,5.0,9.0,62,0.00,,---,0.00,VWS V14.01,2013-01-25 14:23:00,
2013-01-25 09:28:00,67.6,53.7,30.21,NNW,347,3.0,9.0,61,0.00,,---,0.00,VWS V14.01,2013-01-25 14:28:00,
2013-01-25 09:33:00,67.8,53.4,30.22,North,355,4.0,4.0,60,0.00,,---,0.00,VWS V14.01,2013-01-25 14:33:00,
2013-01-25 09:38:00,68.6,54.2,30.22,North,355,2.0,5.0,60,0.00,,---,0.00,VWS V14.01,2013-01-25 14:38:00,
2013-01-25 09:44:00,68.1,53.7,30.22,NNW,337,4.0,10.0,60,0.00,,---,0.00,VWS V14.01,2013-01-25 14:44:00,
2013-01-25 09:49:00,68.4,54.0,30.22,NNW,339,2.0,10.0,60,0.00,,---,0.00,VWS V14.01,2013-01-25 14:49:00,
2013-01-25 09:54:00,68.8,53.9,30.22,NNW,339,7.0,10.0,59,0.00,,---,0.00,VWS V14.01,2013-01-25 14:54:00,
2013-01-25 09:59:00,69.1,54.2,30.22,NNW,344,1.0,10.0,59,0.00,,---,0.00,VWS V14.01,2013-01-25 14:59:00,
2013-01-25 10:04:00,70.1,55.1,30.23,NNW,344,5.0,5.0,59,0.00,,---,0.00,VWS V14.01,2013-01-25 15:04:00,
2013-01-25 10:09:00,70.4,55.4,30.23,NNW,342,5.0,5.0,59,0.00,,---,0.00,VWS V14.01,2013-01-25 15:09:00,
2013-01-25 10:14:00,70.3,54.8,30.23,NNW,338,7.0,7.0,58,0.00,,---,0.00,VWS V14.01,2013-01-25 15:14:00,
2013-01-25 10:19:00,70.4,54.5,30.22,NNW,340,6.0,10.0,57,0.00,,---,0.00,VWS V14.01,2013-01-25 15:19:00,
2013-01-25 10:24:00,70.9,54.9,30.22,NNW,340,2.0,10.0,57,0.00,,---,0.00,VWS V14.01,2013-01-25 15:24:00,
2013-01-25 10:29:00,71.5,54.5,30.22,NNW,342,4.0,10.0,55,0.00,,---,0.00,VWS V14.01,2013-01-25 15:29:00,
2013-01-25 10:34:00,72.1,54.6,30.22,NNW,341,5.0,6.0,54,0.00,,---,0.00,VWS V14.01,2013-01-25 15:34:00,
2013-01-25 10:40:00,72.1,56.0,30.22,NNW,341,6.0,7.0,57,0.00,,---,0.00,VWS V14.01,2013-01-25 15:40:00,
2013-01-25 10:45:00,72.8,55.7,30.22,NNW,341,3.0,7.0,55,0.00,,---,0.00,VWS V14.01,2013-01-25 15:45:00,
2013-01-25 10:50:00,73.3,55.7,30.22,NNW,342,4.0,7.0,54,0.00,,---,0.00,VWS V14.01,2013-01-25 15:50:00,
2013-01-25 10:55:00,73.5,55.3,30.22,NNW,344,4.0,7.0,53,0.00,,---,0.00,VWS V14.01,2013-01-25 15:55:00,
2013-01-25 11:00:00,74.4,56.7,30.22,NNW,344,2.0,7.0,54,0.00,,---,0.00,VWS V14.01,2013-01-25 16:00:00,
2013-01-25 11:05:00,74.9,56.6,30.22,North,5,2.0,3.0,53,0.00,,---,0.00,VWS V14.01,2013-01-25 16:05:00,
2013-01-25 11:10:00,73.9,57.2,30.22,North,355,3.0,4.0,56,0.00,,---,0.00,VWS V14.01,2013-01-25 16:10:00,
2013-01-25 11:15:00,74.4,57.2,30.22,North,349,4.0,9.0,55,0.00,,---,0.00,VWS V14.01,2013-01-25 16:15:00,
2013-01-25 11:20:00,75.3,56.5,30.20,NNW,346,3.0,9.0,52,0.00,,---,0.00,VWS V14.01,2013-01-25 16:20:00,
2013-01-25 11:25:00,75.8,58.5,30.20,NNW,345,2.0,9.0,55,0.00,,---,0.00,VWS V14.01,2013-01-25 16:25:00,
2013-01-25 11:30:00,76.3,57.9,30.20,North,355,4.0,9.0,53,0.00,,---,0.00,VWS V14.01,2013-01-25 16:30:00,
2013-01-25 11:35:00,76.5,57.6,30.20,North,355,1.0,4.0,52,0.00,,---,0.00,VWS V14.01,2013-01-25 16:35:00,
2013-01-25 11:41:00,76.7,57.2,30.20,NE,49,0.0,5.0,51,0.00,,---,0.00,VWS V14.01,2013-01-25 16:41:00,
2013-01-25 11:46:00,77.6,58.6,30.19,NNE,32,3.0,5.0,52,0.00,,---,0.00,VWS V14.01,2013-01-25 16:46:00,
2013-01-25 11:51:00,77.9,58.3,30.19,NNE,21,0.0,5.0,51,0.00,,---,0.00,VWS V14.01,2013-01-25 16:51:00,
2013-01-25 11:56:00,77.6,59.1,30.19,NNE,32,3.0,5.0,53,0.00,,---,0.00,VWS V14.01,2013-01-25 16:56:00,
2013-01-25 12:01:00,77.7,57.6,30.19,NE,39,2.0,5.0,50,0.00,,---,0.00,VWS V14.01,2013-01-25 17:01:00,
2013-01-25 12:06:00,78.1,57.4,30.19,ENE,74,7.0,7.0,49,0.00,,---,0.00,VWS V14.01,2013-01-25 17:06:00,
2013-01-25 12:11:00,77.9,57.2,30.19,ESE,119,5.0,8.0,49,0.00,,---,0.00,VWS V14.01,2013-01-25 17:11:00,
2013-01-25 12:16:00,77.6,57.5,30.18,East,94,3.0,8.0,50,0.00,,---,0.00,VWS V14.01,2013-01-25 17:16:00,
2013-01-25 12:21:00,77.7,57.0,30.18,NE,34,3.0,8.0,49,0.00,,---,0.00,VWS V14.01,2013-01-25 17:21:00,
2013-01-25 12:26:00,77.9,57.8,30.18,North,360,6.0,8.0,50,0.00,,---,0.00,VWS V14.01,2013-01-25 17:26:00,
2013-01-25 12:31:00,78.5,58.9,30.17,ENE,73,9.0,9.0,51,0.00,,---,0.00,VWS V14.01,2013-01-25 17:31:00,
2013-01-25 12:37:00,77.2,57.7,30.17,NNW,344,2.0,6.0,51,0.00,,---,0.00,VWS V14.01,2013-01-25 17:37:00,
2013-01-25 12:42:00,76.7,56.7,30.17,East,98,3.0,9.0,50,0.00,,---,0.00,VWS V14.01,2013-01-25 17:42:00,
2013-01-25 12:47:00,76.1,56.7,30.17,ENE,77,3.0,9.0,51,0.00,,---,0.00,VWS V14.01,2013-01-25 17:47:00,
2013-01-25 12:52:00,77.4,57.3,30.17,ENE,61,2.0,9.0,50,0.00,,---,0.00,VWS V14.01,2013-01-25 17:52:00,
2013-01-25 12:57:00,78.1,56.8,30.17,East,89,3.0,11.0,48,0.00,,---,0.00,VWS V14.01,2013-01-25 17:57:00,
2013-01-25 13:02:00,77.7,57.6,30.16,NE,46,4.0,11.0,50,0.00,,---,0.00,VWS V14.01,2013-01-25 18:02:00,
2013-01-25 13:07:00,76.8,56.2,30.16,East,86,3.0,7.0,49,0.00,,---,0.00,VWS V14.01,2013-01-25 18:07:00,
2013-01-25 13:12:00,76.0,57.7,30.16,NE,51,3.0,7.0,53,0.00,,---,0.00,VWS V14.01,2013-01-25 18:12:00,
2013-01-25 13:17:00,77.2,58.2,30.15,ENE,71,3.0,7.0,52,0.00,,---,0.00,VWS V14.01,2013-01-25 18:17:00,
2013-01-25 13:22:00,78.3,58.2,30.15,ENE,61,2.0,7.0,50,0.00,,---,0.00,VWS V14.01,2013-01-25 18:22:00,
2013-01-25 13:27:00,79.6,57.6,30.15,East,80,5.0,8.0,47,0.00,,---,0.00,VWS V14.01,2013-01-25 18:27:00,
2013-01-25 13:32:00,80.1,58.7,30.14,SE,124,6.0,6.0,48,0.00,,---,0.00,VWS V14.01,2013-01-25 18:32:00,
2013-01-25 13:37:00,79.6,58.2,30.14,ENE,67,1.0,9.0,48,0.00,,---,0.00,VWS V14.01,2013-01-25 18:37:00,
2013-01-25 13:42:00,79.4,58.6,30.14,ESE,122,2.0,9.0,49,0.00,,---,0.00,VWS V14.01,2013-01-25 18:42:00,
2013-01-25 13:47:00,78.1,57.4,30.14,East,81,9.0,10.0,49,0.00,,---,0.00,VWS V14.01,2013-01-25 18:47:00,
2013-01-25 13:53:00,78.6,58.4,30.14,ESE,121,3.0,10.0,50,0.00,,---,0.00,VWS V14.01,2013-01-25 18:53:00,
2013-01-25 13:58:00,79.4,59.7,30.14,SE,139,6.0,10.0,51,0.00,,---,0.00,VWS V14.01,2013-01-25 18:58:00,
2013-01-25 14:03:00,79.8,58.4,30.13,NNE,25,4.0,7.0,48,0.00,,---,0.00,VWS V14.01,2013-01-25 19:03:00,
2013-01-25 14:08:00,79.9,58.5,30.13,ENE,59,6.0,7.0,48,0.00,,---,0.00,VWS V14.01,2013-01-25 19:08:00,
2013-01-25 14:13:00,79.8,57.8,30.13,East,99,4.0,7.0,47,0.00,,---,0.00,VWS V14.01,2013-01-25 19:13:00,
2013-01-25 14:18:00,79.2,58.4,30.13,East,85,4.0,7.0,49,0.00,,---,0.00,VWS V14.01,2013-01-25 19:18:00,
2013-01-25 14:23:00,79.2,57.2,30.13,ENE,70,0.0,7.0,47,0.00,,---,0.00,VWS V14.01,2013-01-25 19:23:00,
2013-01-25 14:28:00,79.8,57.8,30.13,ENE,78,3.0,7.0,47,0.00,,---,0.00,VWS V14.01,2013-01-25 19:28:00,
2013-01-25 14:33:00,79.0,58.8,30.12,ENE,78,4.0,4.0,50,0.00,,---,0.00,VWS V14.01,2013-01-25 19:33:00,
2013-01-25 14:38:00,77.6,59.1,30.12,ENE,59,3.0,8.0,53,0.00,,---,0.00,VWS V14.01,2013-01-25 19:38:00,
2013-01-25 14:43:00,77.4,57.3,30.12,ENE,58,3.0,8.0,50,0.00,,---,0.00,VWS V14.01,2013-01-25 19:43:00,
2013-01-25 14:49:00,77.4,57.9,30.12,NE,53,5.0,8.0,51,0.00,,---,0.00,VWS V14.01,2013-01-25 19:49:00,
2013-01-25 14:54:00,78.5,54.8,30.12,ESE,116,5.0,8.0,44,0.00,,---,0.00,VWS V14.01,2013-01-25 19:54:00,
2013-01-25 14:59:00,78.8,55.7,30.12,ENE,65,5.0,9.0,45,0.00,,---,0.00,VWS V14.01,2013-01-25 19:59:00,
2013-01-25 15:04:00,79.6,56.4,30.12,NE,44,4.0,4.0,45,0.00,,---,0.00,VWS V14.01,2013-01-25 20:04:00,
2013-01-25 15:09:00,78.8,55.7,30.12,ESE,104,1.0,9.0,45,0.00,,---,0.00,VWS V14.01,2013-01-25 20:09:00,
2013-01-25 15:14:00,79.0,55.9,30.12,East,89,0.0,9.0,45,0.00,,---,0.00,VWS V14.01,2013-01-25 20:14:00,
2013-01-25 15:19:00,78.6,56.7,30.11,East,89,6.0,9.0,47,0.00,,---,0.00,VWS V14.01,2013-01-25 20:19:00,
2013-01-25 15:24:00,78.3,56.4,30.11,East,80,3.0,9.0,47,0.00,,---,0.00,VWS V14.01,2013-01-25 20:24:00,
2013-01-25 15:29:00,79.0,57.1,30.11,East,80,0.0,9.0,47,0.00,,---,0.00,VWS V14.01,2013-01-25 20:29:00,
2013-01-25 15:34:00,79.2,56.0,30.11,ENE,76,4.0,4.0,45,0.00,,---,0.00,VWS V14.01,2013-01-25 20:34:00,
2013-01-25 15:39:00,78.5,55.4,30.11,East,82,3.0,9.0,45,0.00,,---,0.00,VWS V14.01,2013-01-25 20:39:00,
2013-01-25 15:44:00,78.1,55.7,30.11,ENE,72,3.0,9.0,46,0.00,,---,0.00,VWS V14.01,2013-01-25 20:44:00,
2013-01-25 15:49:00,78.5,56.0,30.11,ENE,70,5.0,9.0,46,0.00,,---,0.00,VWS V14.01,2013-01-25 20:49:00,
2013-01-25 15:54:00,78.6,56.1,30.11,East,81,5.0,9.0,46,0.00,,---,0.00,VWS V14.01,2013-01-25 20:54:00,
2013-01-25 15:59:00,77.6,55.2,30.11,East,86,2.0,9.0,46,0.00,,---,0.00,VWS V14.01,2013-01-25 20:59:00,
2013-01-25 16:04:00,77.6,55.2,30.11,East,94,0.0,5.0,46,0.00,,---,0.00,VWS V14.01,2013-01-25 21:04:00,
2013-01-25 16:09:00,77.2,56.0,30.11,ESE,113,4.0,8.0,48,0.00,,---,0.00,VWS V14.01,2013-01-25 21:09:00,
2013-01-25 16:14:00,77.2,55.4,30.11,ESE,106,5.0,8.0,47,0.00,,---,0.00,VWS V14.01,2013-01-25 21:14:00,
2013-01-25 16:20:00,76.8,55.1,30.11,East,94,2.0,8.0,47,0.00,,---,0.00,VWS V14.01,2013-01-25 21:20:00,
2013-01-25 16:25:00,76.5,56.5,30.11,East,85,3.0,8.0,50,0.00,,---,0.00,VWS V14.01,2013-01-25 21:25:00,
2013-01-25 16:30:00,76.7,57.2,30.11,East,82,6.0,8.0,51,0.00,,---,0.00,VWS V14.01,2013-01-25 21:30:00,
2013-01-25 16:35:00,76.0,56.0,30.12,East,89,3.0,6.0,50,0.00,,---,0.00,VWS V14.01,2013-01-25 21:35:00,
2013-01-25 16:40:00,76.1,56.1,30.12,East,91,4.0,6.0,50,0.00,,---,0.00,VWS V14.01,2013-01-25 21:40:00,
2013-01-25 16:45:00,75.6,55.7,30.12,East,91,0.0,6.0,50,0.00,,---,0.00,VWS V14.01,2013-01-25 21:45:00,
2013-01-25 16:50:00,75.6,56.2,30.12,East,96,0.0,9.0,51,0.00,,---,0.00,VWS V14.01,2013-01-25 21:50:00,
2013-01-25 16:55:00,75.3,57.0,30.12,East,96,4.0,9.0,53,0.00,,---,0.00,VWS V14.01,2013-01-25 21:55:00,
2013-01-25 17:00:00,74.7,58.0,30.12,East,96,1.0,9.0,56,0.00,,---,0.00,VWS V14.01,2013-01-25 22:00:00,
2013-01-25 17:05:00,74.6,57.9,30.12,East,96,3.0,4.0,56,0.00,,---,0.00,VWS V14.01,2013-01-25 22:05:00,
2013-01-25 17:10:00,74.4,57.2,30.12,East,96,2.0,4.0,55,0.00,,---,0.00,VWS V14.01,2013-01-25 22:10:00,
2013-01-25 17:15:00,74.4,57.7,30.12,East,96,2.0,4.0,56,0.00,,---,0.00,VWS V14.01,2013-01-25 22:15:00,
2013-01-25 17:20:00,74.2,57.5,30.12,East,96,1.0,5.0,56,0.00,,---,0.00,VWS V14.01,2013-01-25 22:20:00,
2013-01-25 17:25:00,74.2,58.0,30.12,East,96,1.0,5.0,57,0.00,,---,0.00,VWS V14.01,2013-01-25 22:25:00,
2013-01-25 17:30:00,74.0,58.3,30.12,East,96,0.0,5.0,58,0.00,,---,0.00,VWS V14.01,2013-01-25 22:30:00,
2013-01-25 17:35:00,73.7,57.5,30.13,East,96,0.0,3.0,57,0.00,,---,0.00,VWS V14.01,2013-01-25 22:35:00,
2013-01-25 17:40:00,73.3,58.1,30.13,East,90,3.0,6.0,59,0.00,,---,0.00,VWS V14.01,2013-01-25 22:40:00,
2013-01-25 17:45:00,73.0,58.3,30.13,East,90,2.0,6.0,60,0.00,,---,0.00,VWS V14.01,2013-01-25 22:45:00,
2013-01-25 17:50:00,72.5,58.3,30.13,East,90,2.0,6.0,61,0.00,,---,0.00,VWS V14.01,2013-01-25 22:50:00,
2013-01-25 17:56:00,72.1,58.4,30.13,East,90,2.0,6.0,62,0.00,,---,0.00,VWS V14.01,2013-01-25 22:56:00,
2013-01-25 18:01:00,71.8,58.5,30.13,East,90,2.0,6.0,63,0.00,,---,0.00,VWS V14.01,2013-01-25 23:01:00,
2013-01-25 18:06:00,71.5,58.3,30.13,East,90,0.0,2.0,63,0.00,,---,0.00,VWS V14.01,2013-01-25 23:06:00,
2013-01-25 18:11:00,71.1,58.8,30.13,East,90,0.0,2.0,65,0.00,,---,0.00,VWS V14.01,2013-01-25 23:11:00,
2013-01-25 18:16:00,70.6,58.7,30.14,East,90,0.0,2.0,66,0.00,,---,0.00,VWS V14.01,2013-01-25 23:16:00,
2013-01-25 18:21:00,70.3,58.8,30.14,East,90,0.0,2.0,67,0.00,,---,0.00,VWS V14.01,2013-01-25 23:21:00,
2013-01-25 18:26:00,69.9,58.9,30.14,East,90,0.0,2.0,68,0.00,,---,0.00,VWS V14.01,2013-01-25 23:26:00,
2013-01-25 18:31:00,69.6,58.6,30.14,East,90,0.0,2.0,68,0.00,,---,0.00,VWS V14.01,2013-01-25 23:31:00,
2013-01-25 18:36:00,69.3,58.7,30.14,East,90,0.0,0.0,69,0.00,,---,0.00,VWS V14.01,2013-01-25 23:36:00,
2013-01-25 18:41:00,68.8,58.6,30.14,East,90,0.0,0.0,70,0.00,,---,0.00,VWS V14.01,2013-01-25 23:41:00,
2013-01-25 18:46:00,68.6,58.8,30.14,East,90,0.0,0.0,71,0.00,,---,0.00,VWS V14.01,2013-01-25 23:46:00,
2013-01-25 18:51:00,68.6,59.2,30.14,East,90,0.0,0.0,72,0.00,,---,0.00,VWS V14.01,2013-01-25 23:51:00,
2013-01-25 18:56:00,68.4,59.0,30.14,East,90,0.0,0.0,72,0.00,,---,0.00,VWS V14.01,2013-01-25 23:56:00,
2013-01-25 19:01:00,68.1,59.1,30.14,East,90,0.0,0.0,73,0.00,,---,0.00,VWS V14.01,2013-01-26 00:01:00,
2013-01-25 19:06:00,67.8,59.2,30.14,East,90,0.0,0.0,74,0.00,,---,0.00,VWS V14.01,2013-01-26 00:06:00,
2013-01-25 19:11:00,67.6,59.0,30.14,East,90,0.0,0.0,74,0.00,,---,0.00,VWS V14.01,2013-01-26 00:11:00,
2013-01-25 19:16:00,67.4,59.2,30.14,East,90,0.0,0.0,75,0.00,,---,0.00,VWS V14.01,2013-01-26 00:16:00,
2013-01-25 19:21:00,67.1,58.9,30.14,East,90,0.0,0.0,75,0.00,,---,0.00,VWS V14.01,2013-01-26 00:21:00,
2013-01-25 19:26:00,66.9,59.1,30.14,East,90,0.0,0.0,76,0.00,,---,0.00,VWS V14.01,2013-01-26 00:26:00,
2013-01-25 19:31:00,66.6,59.2,30.14,East,90,0.0,0.0,77,0.00,,---,0.00,VWS V14.01,2013-01-26 00:31:00,
2013-01-25 19:36:00,66.3,59.2,30.14,East,90,0.0,0.0,78,0.00,,---,0.00,VWS V14.01,2013-01-26 00:36:00,
2013-01-25 19:42:00,66.0,59.3,30.14,East,90,0.0,0.0,79,0.00,,---,0.00,VWS V14.01,2013-01-26 00:42:00,
2013-01-25 19:47:00,65.8,59.1,30.14,East,90,0.0,0.0,79,0.00,,---,0.00,VWS V14.01,2013-01-26 00:47:00,
2013-01-25 19:52:00,65.6,59.3,30.14,East,90,0.0,0.0,80,0.00,,---,0.00,VWS V14.01,2013-01-26 00:52:00,
2013-01-25 19:57:00,65.5,59.5,30.14,East,90,0.0,0.0,81,0.00,,---,0.00,VWS V14.01,2013-01-26 00:57:00,
2013-01-25 20:02:00,65.3,59.7,30.14,East,90,0.0,0.0,82,0.00,,---,0.00,VWS V14.01,2013-01-26 01:02:00,
2013-01-25 20:07:00,65.0,59.7,30.14,East,90,0.0,0.0,83,0.00,,---,0.00,VWS V14.01,2013-01-26 01:07:00,
2013-01-25 20:12:00,64.8,59.9,30.14,East,90,0.0,0.0,84,0.00,,---,0.00,VWS V14.01,2013-01-26 01:12:00,
2013-01-25 20:17:00,64.7,59.8,30.14,East,90,0.0,0.0,84,0.00,,---,0.00,VWS V14.01,2013-01-26 01:17:00,
2013-01-25 20:22:00,64.3,59.7,30.14,East,90,0.0,0.0,85,0.00,,---,0.00,VWS V14.01,2013-01-26 01:22:00,
2013-01-25 20:27:00,64.3,59.7,30.14,East,90,0.0,0.0,85,0.00,,---,0.00,VWS V14.01,2013-01-26 01:27:00,
2013-01-25 20:32:00,64.2,59.9,30.15,East,90,0.0,0.0,86,0.00,,---,0.00,VWS V14.01,2013-01-26 01:32:00,
2013-01-25 20:37:00,64.0,60.4,30.15,East,90,0.0,0.0,88,0.00,,---,0.00,VWS V14.01,2013-01-26 01:37:00,
2013-01-25 20:42:00,64.0,60.4,30.15,East,90,0.0,0.0,88,0.00,,---,0.00,VWS V14.01,2013-01-26 01:42:00,
2013-01-25 20:47:00,63.9,60.3,30.14,East,90,0.0,0.0,88,0.00,,---,0.00,VWS V14.01,2013-01-26 01:47:00,
2013-01-25 20:52:00,63.9,60.9,30.14,East,90,0.0,0.0,90,0.00,,---,0.00,VWS V14.01,2013-01-26 01:52:00,
2013-01-25 20:57:00,63.7,61.0,30.14,East,90,0.0,0.0,91,0.00,,---,0.00,VWS V14.01,2013-01-26 01:57:00,
2013-01-25 21:02:00,63.5,60.8,30.15,East,90,0.0,0.0,91,0.00,,---,0.00,VWS V14.01,2013-01-26 02:02:00,
2013-01-25 21:08:00,63.4,60.7,30.15,East,90,0.0,0.0,91,0.00,,---,0.00,VWS V14.01,2013-01-26 02:08:00,
2013-01-25 21:13:00,63.7,61.3,30.15,East,90,0.0,0.0,92,0.00,,---,0.00,VWS V14.01,2013-01-26 02:13:00,
2013-01-25 21:18:00,63.5,61.4,30.15,East,90,0.0,0.0,93,0.00,,---,0.00,VWS V14.01,2013-01-26 02:18:00,
2013-01-25 21:23:00,63.2,61.2,30.15,East,90,0.0,0.0,93,0.00,,---,0.00,VWS V14.01,2013-01-26 02:23:00,
2013-01-25 21:28:00,63.1,61.0,30.15,East,90,0.0,0.0,93,0.00,,---,0.00,VWS V14.01,2013-01-26 02:28:00,
2013-01-25 21:33:00,62.9,60.8,30.15,East,90,0.0,0.0,93,0.00,,---,0.00,VWS V14.01,2013-01-26 02:33:00,
2013-01-25 21:38:00,62.9,60.8,30.15,East,90,0.0,0.0,93,0.00,,---,0.00,VWS V14.01,2013-01-26 02:38:00,
2013-01-25 21:43:00,62.7,60.7,30.15,East,90,0.0,0.0,93,0.00,,---,0.00,VWS V14.01,2013-01-26 02:43:00,
2013-01-25 21:48:00,62.6,60.5,30.15,East,90,0.0,0.0,93,0.00,,---,0.00,VWS V14.01,2013-01-26 02:48:00,
2013-01-25 21:53:00,62.6,60.8,30.15,East,90,0.0,0.0,94,0.00,,---,0.00,VWS V14.01,2013-01-26 02:53:00,
2013-01-25 21:58:00,62.6,60.8,30.15,East,90,0.0,0.0,94,0.00,,---,0.00,VWS V14.01,2013-01-26 02:58:00,
2013-01-25 22:03:00,62.6,60.8,30.15,East,90,0.0,0.0,94,0.00,,---,0.00,VWS V14.01,2013-01-26 03:03:00,
2013-01-25 22:08:00,62.4,60.3,30.15,East,90,0.0,0.0,93,0.00,,---,0.00,VWS V14.01,2013-01-26 03:08:00,
2013-01-25 22:13:00,62.4,60.7,30.15,East,90,0.0,0.0,94,0.00,,---,0.00,VWS V14.01,2013-01-26 03:13:00,
2013-01-25 22:18:00,62.3,60.6,30.15,East,90,0.0,0.0,94,0.00,,---,0.00,VWS V14.01,2013-01-26 03:18:00,
2013-01-25 22:23:00,62.1,60.4,30.15,East,90,0.0,0.0,94,0.00,,---,0.00,VWS V14.01,2013-01-26 03:23:00,
2013-01-25 22:28:00,61.8,60.4,30.15,East,90,0.0,0.0,95,0.00,,---,0.00,VWS V14.01,2013-01-26 03:28:00,
2013-01-25 22:33:00,61.6,60.2,30.15,East,90,0.0,0.0,95,0.00,,---,0.00,VWS V14.01,2013-01-26 03:33:00,
2013-01-25 22:39:00,61.5,60.1,30.15,East,90,0.0,0.0,95,0.00,,---,0.00,VWS V14.01,2013-01-26 03:39:00,
2013-01-25 22:44:00,61.3,60.2,30.15,East,90,0.0,0.0,96,0.00,,---,0.00,VWS V14.01,2013-01-26 03:44:00,
2013-01-25 22:49:00,61.3,60.4,30.16,East,90,0.0,0.0,97,0.00,,---,0.00,VWS V14.01,2013-01-26 03:49:00,
2013-01-25 22:54:00,61.5,60.6,30.16,East,90,0.0,0.0,97,0.00,,---,0.00,VWS V14.01,2013-01-26 03:54:00,
2013-01-25 22:59:00,61.3,60.4,30.16,East,90,0.0,0.0,97,0.00,,---,0.00,VWS V14.01,2013-01-26 03:59:00,
2013-01-25 23:04:00,61.3,60.4,30.15,East,90,0.0,0.0,97,0.00,,---,0.00,VWS V14.01,2013-01-26 04:04:00,
2013-01-25 23:09:00,61.3,60.4,30.15,East,90,0.0,0.0,97,0.00,,---,0.00,VWS V14.01,2013-01-26 04:09:00,
2013-01-25 23:14:00,61.3,60.4,30.15,East,90,0.0,0.0,97,0.00,,---,0.00,VWS V14.01,2013-01-26 04:14:00,
2013-01-25 23:19:00,61.5,60.6,30.15,East,90,0.0,0.0,97,0.00,,---,0.00,VWS V14.01,2013-01-26 04:19:00,
2013-01-25 23:24:00,61.3,60.4,30.15,East,90,0.0,0.0,97,0.00,,---,0.00,VWS V14.01,2013-01-26 04:24:00,
2013-01-25 23:29:00,61.0,60.2,30.15,East,90,0.0,0.0,97,0.00,,---,0.00,VWS V14.01,2013-01-26 04:29:00,
2013-01-25 23:34:00,61.0,60.2,30.15,East,90,0.0,0.0,97,0.00,,---,0.00,VWS V14.01,2013-01-26 04:34:00,
2013-01-25 23:39:00,60.9,60.3,30.15,East,90,0.0,0.0,98,0.00,,---,0.00,VWS V14.01,2013-01-26 04:39:00,
2013-01-25 23:44:00,60.7,60.1,30.15,East,90,0.0,0.0,98,0.00,,---,0.00,VWS V14.01,2013-01-26 04:44:00,
2013-01-25 23:49:00,60.5,59.7,30.15,East,90,0.0,0.0,97,0.00,,---,0.00,VWS V14.01,2013-01-26 04:49:00,
2013-01-25 23:54:00,60.5,59.9,30.15,East,90,0.0,0.0,98,0.00,,---,0.00,VWS V14.01,2013-01-26 04:54:00,
2013-01-25 23:59:00,60.4,59.8,30.15,East,90,0.0,0.0,98,0.00,,---,0.00,VWS V14.01,2013-01-26 04:59:00,